createdAt,value
2018-04-22T00:00:09.032Z,0.00
2018-04-22T00:01:05.898Z,0.00
2018-04-22T00:02:05.804Z,0.00
2018-04-22T00:03:05.624Z,0.00
2018-04-22T00:04:07.490Z,0.00
2018-04-22T00:05:06.008Z,0.00
2018-04-22T00:06:07.029Z,0.00
2018-04-22T00:07:06.055Z,0.00
2018-04-22T00:08:05.901Z,0.00
2018-04-22T00:09:06.007Z,0.00
2018-04-22T00:10:06.226Z,0.00
2018-04-22T00:11:05.897Z,0.00
2018-04-22T00:12:06.095Z,0.00
2018-04-22T00:13:05.872Z,0.00
2018-04-22T00:14:07.358Z,0.00
2018-04-22T00:15:06.338Z,0.00
2018-04-22T00:16:08.309Z,0.00
2018-04-22T00:17:06.325Z,0.00
2018-04-22T00:18:05.985Z,0.00
2018-04-22T00:19:06.679Z,0.00
2018-04-22T00:20:08.324Z,0.00
2018-04-22T00:21:06.023Z,0.00
2018-04-22T00:22:06.094Z,0.00
2018-04-22T00:23:06.051Z,0.00
2018-04-22T00:24:05.842Z,0.00
2018-04-22T00:25:06.471Z,0.00
2018-04-22T00:26:05.904Z,0.00
2018-04-22T00:27:05.883Z,0.00
2018-04-22T00:28:05.877Z,0.00
2018-04-22T00:29:06.084Z,0.00
2018-04-22T00:30:05.914Z,0.00
2018-04-22T00:31:07.642Z,0.00
2018-04-22T00:32:06.425Z,0.00
2018-04-22T00:33:06.133Z,0.00
2018-04-22T00:34:06.074Z,0.00
2018-04-22T00:35:07.846Z,0.00
2018-04-22T00:36:06.983Z,0.00
2018-04-22T00:37:07.880Z,0.00
2018-04-22T00:38:05.692Z,0.00
2018-04-22T00:39:06.367Z,0.00
2018-04-22T00:40:07.669Z,0.00
2018-04-22T00:41:05.951Z,0.00
2018-04-22T00:42:06.604Z,0.00
2018-04-22T00:43:05.940Z,0.00
2018-04-22T00:44:08.689Z,0.00
2018-04-22T00:45:07.896Z,0.00
2018-04-22T00:46:07.340Z,0.00
2018-04-22T00:47:06.034Z,0.00
2018-04-22T00:48:05.918Z,0.00
2018-04-22T00:49:05.825Z,0.00
2018-04-22T00:50:06.536Z,0.00
2018-04-22T00:51:05.917Z,0.00
2018-04-22T00:52:06.479Z,0.00
2018-04-22T00:53:07.902Z,0.00
2018-04-22T00:54:09.774Z,0.00
2018-04-22T00:55:07.216Z,0.00
2018-04-22T00:56:07.279Z,0.00
2018-04-22T00:57:21.957Z,0.00
2018-04-22T00:58:07.235Z,0.00
2018-04-22T00:59:06.426Z,0.00
2018-04-22T01:00:06.325Z,0.00
2018-04-22T01:02:41.183Z,0.00
2018-04-22T01:03:40.386Z,0.00
2018-04-22T01:04:40.048Z,0.00
2018-04-22T01:05:40.262Z,0.00
2018-04-22T01:06:40.845Z,0.00
2018-04-22T01:07:41.203Z,0.00
2018-04-22T01:08:39.983Z,0.00
2018-04-22T01:09:40.142Z,0.00
2018-04-22T01:10:40.376Z,0.00
2018-04-22T01:11:41.067Z,0.00
2018-04-22T01:12:40.265Z,0.00
2018-04-22T01:13:40.258Z,0.00
2018-04-22T01:14:40.677Z,0.00
2018-04-22T01:15:40.593Z,0.00
2018-04-22T01:16:42.449Z,0.00
2018-04-22T01:17:40.772Z,0.00
2018-04-22T01:18:41.304Z,0.00
2018-04-22T01:19:41.009Z,0.00
2018-04-22T01:20:40.255Z,0.00
2018-04-22T01:21:40.215Z,0.00
2018-04-22T01:22:41.272Z,0.00
2018-04-22T01:23:40.234Z,0.00
2018-04-22T01:24:41.375Z,0.00
2018-04-22T01:25:40.779Z,0.00
2018-04-22T01:26:40.376Z,0.00
2018-04-22T01:27:43.026Z,0.00
2018-04-22T01:28:41.190Z,0.00
2018-04-22T01:29:41.779Z,0.00
2018-04-22T01:30:41.088Z,0.00
2018-04-22T01:31:40.791Z,0.00
2018-04-22T01:32:43.155Z,0.00
2018-04-22T01:33:40.474Z,0.00
2018-04-22T01:34:40.454Z,0.00
2018-04-22T01:35:42.966Z,0.00
2018-04-22T01:36:40.443Z,0.00
2018-04-22T01:37:42.152Z,0.00
2018-04-22T01:38:41.055Z,0.00
2018-04-22T01:39:42.589Z,0.00
2018-04-22T01:40:40.275Z,0.00
2018-04-22T01:41:40.435Z,0.00
2018-04-22T01:42:41.322Z,0.00
2018-04-22T01:43:41.755Z,0.00
2018-04-22T01:44:40.509Z,0.00
2018-04-22T01:45:40.473Z,0.00
2018-04-22T01:46:41.288Z,0.00
2018-04-22T01:47:40.789Z,0.00
2018-04-22T01:48:40.788Z,0.00
2018-04-22T01:49:40.818Z,0.00
2018-04-22T01:50:41.683Z,0.00
2018-04-22T01:51:41.339Z,0.00
2018-04-22T01:52:40.513Z,0.00
2018-04-22T01:53:41.334Z,0.00
2018-04-22T01:54:41.191Z,0.00
2018-04-22T01:55:42.795Z,0.00
2018-04-22T01:56:42.790Z,0.00
2018-04-22T01:57:40.917Z,0.00
2018-04-22T01:58:41.021Z,0.00
2018-04-22T01:59:40.801Z,0.00
2018-04-22T02:00:40.560Z,0.00
2018-04-22T02:01:41.693Z,0.00
2018-04-22T02:02:40.812Z,0.00
2018-04-22T02:03:40.182Z,0.00
2018-04-22T02:04:40.801Z,0.00
2018-04-22T02:05:40.964Z,0.00
2018-04-22T02:06:40.795Z,0.00
2018-04-22T02:07:40.475Z,0.00
2018-04-22T02:08:40.263Z,0.00
2018-04-22T02:09:40.411Z,0.00
2018-04-22T02:10:41.030Z,0.00
2018-04-22T02:11:40.476Z,0.00
2018-04-22T02:12:41.578Z,0.00
2018-04-22T02:13:41.037Z,0.00
2018-04-22T02:14:41.126Z,0.00
2018-04-22T02:15:40.440Z,0.00
2018-04-22T02:16:42.482Z,0.00
2018-04-22T02:17:40.326Z,0.00
2018-04-22T02:18:40.754Z,0.00
2018-04-22T02:19:41.085Z,0.00
2018-04-22T02:20:44.878Z,0.00
2018-04-22T02:21:41.360Z,0.00
2018-04-22T02:22:40.795Z,0.00
2018-04-22T02:23:40.796Z,0.00
2018-04-22T02:24:40.398Z,0.00
2018-04-22T02:25:40.502Z,0.00
2018-04-22T02:26:40.814Z,0.00
2018-04-22T02:27:42.139Z,0.00
2018-04-22T02:28:41.307Z,0.00
2018-04-22T02:29:41.160Z,0.00
2018-04-22T02:30:40.328Z,0.00
2018-04-22T02:31:40.354Z,0.00
2018-04-22T02:32:40.412Z,0.00
2018-04-22T02:33:40.444Z,0.00
2018-04-22T02:34:40.965Z,0.00
2018-04-22T02:35:40.885Z,0.00
2018-04-22T02:36:41.095Z,0.00
2018-04-22T02:37:40.815Z,0.00
2018-04-22T02:38:41.808Z,0.00
2018-04-22T02:39:40.572Z,0.00
2018-04-22T02:40:41.302Z,0.00
2018-04-22T02:41:40.813Z,0.00
2018-04-22T02:42:40.420Z,0.00
2018-04-22T02:43:42.799Z,0.00
2018-04-22T02:44:40.671Z,0.00
2018-04-22T02:45:40.558Z,0.00
2018-04-22T02:46:40.855Z,0.00
2018-04-22T02:47:41.468Z,0.00
2018-04-22T02:48:41.267Z,0.00
2018-04-22T02:49:41.380Z,0.00
2018-04-22T02:50:43.803Z,0.00
2018-04-22T02:51:40.932Z,0.00
2018-04-22T02:52:44.002Z,0.00
2018-04-22T02:53:40.778Z,0.00
2018-04-22T02:54:40.492Z,0.00
2018-04-22T02:55:40.995Z,0.00
2018-04-22T02:56:40.714Z,0.00
2018-04-22T02:57:40.804Z,0.00
2018-04-22T02:58:40.520Z,0.00
2018-04-22T02:59:42.076Z,0.00
2018-04-22T03:00:43.808Z,0.00
2018-04-22T03:01:40.936Z,0.00
2018-04-22T03:02:40.807Z,0.00
2018-04-22T03:03:40.453Z,0.00
2018-04-22T03:04:40.449Z,0.00
2018-04-22T03:05:40.813Z,0.00
2018-04-22T03:06:40.662Z,0.00
2018-04-22T03:07:42.204Z,0.00
2018-04-22T03:08:40.899Z,0.00
2018-04-22T03:09:41.287Z,0.00
2018-04-22T03:10:41.740Z,0.00
2018-04-22T03:11:40.519Z,0.00
2018-04-22T03:12:41.288Z,0.00
2018-04-22T03:13:40.820Z,0.00
2018-04-22T03:14:42.447Z,0.00
2018-04-22T03:15:41.732Z,0.00
2018-04-22T03:16:40.985Z,0.00
2018-04-22T03:17:43.122Z,0.00
2018-04-22T03:18:41.291Z,0.00
2018-04-22T03:19:40.718Z,0.00
2018-04-22T03:20:41.302Z,0.00
2018-04-22T03:21:41.742Z,0.00
2018-04-22T03:22:41.882Z,0.00
2018-04-22T03:23:42.023Z,0.00
2018-04-22T03:24:41.321Z,0.00
2018-04-22T03:25:42.109Z,0.00
2018-04-22T03:26:42.125Z,0.00
2018-04-22T03:27:42.743Z,0.00
2018-04-22T03:28:43.810Z,0.00
2018-04-22T03:29:40.949Z,0.00
2018-04-22T03:30:41.399Z,0.00
2018-04-22T03:31:43.531Z,0.00
2018-04-22T03:32:41.354Z,0.00
2018-04-22T03:33:41.720Z,0.00
2018-04-22T03:34:42.040Z,0.00
2018-04-22T03:35:40.784Z,0.00
2018-04-22T03:36:41.070Z,0.00
2018-04-22T03:37:41.010Z,0.00
2018-04-22T03:38:42.931Z,0.00
2018-04-22T03:39:42.782Z,0.00
2018-04-22T03:40:42.670Z,0.00
2018-04-22T03:41:41.034Z,0.00
2018-04-22T03:42:41.676Z,0.00
2018-04-22T03:43:41.410Z,0.00
2018-04-22T03:44:41.987Z,0.00
2018-04-22T03:45:41.320Z,0.00
2018-04-22T03:46:40.818Z,0.00
2018-04-22T03:47:41.444Z,0.00
2018-04-22T03:48:42.734Z,0.00
2018-04-22T03:49:41.007Z,0.00
2018-04-22T03:50:41.317Z,0.00
2018-04-22T03:51:43.908Z,0.00
2018-04-22T03:52:41.633Z,0.00
2018-04-22T03:53:44.843Z,0.00
2018-04-22T03:54:41.533Z,0.00
2018-04-22T03:55:41.898Z,0.00
2018-04-22T03:56:41.329Z,0.00
2018-04-22T03:57:41.381Z,0.00
2018-04-22T03:58:41.352Z,0.00
2018-04-22T03:59:42.492Z,0.00
2018-04-22T04:00:40.842Z,0.00
2018-04-22T04:01:40.620Z,0.00
2018-04-22T04:02:41.311Z,0.00
2018-04-22T04:03:41.299Z,0.00
2018-04-22T04:04:43.585Z,0.00
2018-04-22T04:05:43.175Z,0.00
2018-04-22T04:06:41.450Z,0.00
2018-04-22T04:07:41.342Z,0.00
2018-04-22T04:08:41.401Z,0.00
2018-04-22T04:09:41.738Z,0.00
2018-04-22T04:10:42.521Z,0.00
2018-04-22T04:11:40.704Z,0.00
2018-04-22T04:12:41.633Z,0.00
2018-04-22T04:13:41.483Z,0.00
2018-04-22T04:14:41.346Z,0.00
2018-04-22T04:15:40.792Z,0.00
2018-04-22T04:16:41.343Z,0.00
2018-04-22T04:17:43.326Z,0.00
2018-04-22T04:18:44.695Z,0.00
2018-04-22T04:19:42.137Z,0.00
2018-04-22T04:20:41.229Z,5.63
2018-04-22T04:21:41.327Z,5.63
2018-04-22T04:22:40.859Z,5.63
2018-04-22T04:23:41.328Z,5.63
2018-04-22T04:24:44.095Z,5.63
2018-04-22T04:25:41.123Z,5.63
2018-04-22T04:26:42.592Z,5.63
2018-04-22T04:27:40.739Z,5.63
2018-04-22T04:28:41.329Z,11.25
2018-04-22T04:29:42.002Z,11.25
2018-04-22T04:30:41.630Z,11.25
2018-04-22T04:31:42.776Z,11.25
2018-04-22T04:32:44.077Z,11.25
2018-04-22T04:33:41.109Z,11.25
2018-04-22T04:34:42.844Z,11.25
2018-04-22T04:35:40.813Z,11.25
2018-04-22T04:36:40.851Z,11.25
2018-04-22T04:37:43.332Z,11.25
2018-04-22T04:38:41.044Z,11.25
2018-04-22T04:39:43.355Z,16.88
2018-04-22T04:40:41.332Z,16.88
2018-04-22T04:41:43.341Z,16.88
2018-04-22T04:42:42.713Z,16.88
2018-04-22T04:43:41.347Z,16.88
2018-04-22T04:44:40.781Z,22.50
2018-04-22T04:45:40.795Z,22.50
2018-04-22T04:46:41.341Z,28.13
2018-04-22T04:47:40.872Z,28.13
2018-04-22T04:48:41.342Z,28.13
2018-04-22T04:49:41.341Z,33.75
2018-04-22T04:50:41.007Z,33.75
2018-04-22T04:51:41.514Z,33.75
2018-04-22T04:52:40.998Z,33.75
2018-04-22T04:53:41.041Z,39.38
2018-04-22T04:54:41.235Z,45.00
2018-04-22T04:55:41.052Z,45.00
2018-04-22T04:56:41.341Z,45.00
2018-04-22T04:57:41.288Z,45.00
2018-04-22T04:58:41.047Z,45.00
2018-04-22T04:59:41.339Z,45.00
2018-04-22T05:00:41.162Z,45.00
2018-04-22T05:01:40.890Z,45.00
2018-04-22T05:02:41.201Z,45.00
2018-04-22T05:03:41.633Z,39.38
2018-04-22T05:04:40.998Z,39.38
2018-04-22T05:05:40.771Z,39.38
2018-04-22T05:06:41.568Z,33.75
2018-04-22T05:07:40.983Z,33.75
2018-04-22T05:08:41.625Z,33.75
2018-04-22T05:09:41.349Z,39.38
2018-04-22T05:10:40.705Z,39.38
2018-04-22T05:11:43.530Z,39.38
2018-04-22T05:12:41.393Z,45.00
2018-04-22T05:13:40.875Z,45.00
2018-04-22T05:14:41.346Z,50.63
2018-04-22T05:15:43.515Z,50.63
2018-04-22T05:16:40.878Z,50.63
2018-04-22T05:17:41.216Z,50.63
2018-04-22T05:18:41.139Z,56.25
2018-04-22T05:19:41.903Z,50.63
2018-04-22T05:20:41.344Z,56.25
2018-04-22T05:21:41.348Z,56.25
2018-04-22T05:22:41.355Z,56.25
2018-04-22T05:23:41.844Z,61.88
2018-04-22T05:24:41.448Z,67.50
2018-04-22T05:25:41.347Z,73.13
2018-04-22T05:26:41.621Z,84.38
2018-04-22T05:27:41.166Z,90.00
2018-04-22T05:28:41.726Z,95.63
2018-04-22T05:29:42.949Z,95.63
2018-04-22T05:30:42.100Z,95.63
2018-04-22T05:31:41.159Z,95.63
2018-04-22T05:32:41.353Z,90.00
2018-04-22T05:33:41.736Z,90.00
2018-04-22T05:34:41.242Z,95.63
2018-04-22T05:35:41.590Z,95.63
2018-04-22T05:36:41.371Z,95.63
2018-04-22T05:37:41.105Z,95.63
2018-04-22T05:38:41.866Z,101.25
2018-04-22T05:39:41.099Z,106.88
2018-04-22T05:40:41.001Z,123.75
2018-04-22T05:41:41.603Z,129.38
2018-04-22T05:42:40.939Z,112.50
2018-04-22T05:43:41.350Z,106.88
2018-04-22T05:44:41.251Z,112.50
2018-04-22T05:45:40.833Z,129.38
2018-04-22T05:46:41.154Z,129.38
2018-04-22T05:47:41.352Z,146.25
2018-04-22T05:48:41.405Z,146.25
2018-04-22T05:49:40.924Z,151.88
2018-04-22T05:50:41.729Z,163.13
2018-04-22T05:51:40.791Z,174.38
2018-04-22T05:52:41.046Z,174.38
2018-04-22T05:53:42.950Z,180.00
2018-04-22T05:54:42.789Z,208.13
2018-04-22T05:55:41.515Z,219.38
2018-04-22T05:56:41.355Z,219.38
2018-04-22T05:57:41.355Z,236.25
2018-04-22T05:58:41.017Z,241.88
2018-04-22T05:59:41.742Z,241.88
2018-04-22T06:00:41.486Z,247.50
2018-04-22T06:01:43.014Z,241.88
2018-04-22T06:02:41.061Z,264.38
2018-04-22T06:03:41.367Z,270.00
2018-04-22T06:04:42.291Z,275.63
2018-04-22T06:05:41.881Z,281.25
2018-04-22T06:06:41.074Z,275.63
2018-04-22T06:07:41.407Z,275.63
2018-04-22T06:08:41.356Z,281.25
2018-04-22T06:09:41.492Z,286.88
2018-04-22T06:10:43.374Z,286.88
2018-04-22T06:11:41.556Z,303.75
2018-04-22T06:12:41.363Z,309.38
2018-04-22T06:13:41.121Z,309.38
2018-04-22T06:14:41.356Z,309.38
2018-04-22T06:15:41.367Z,309.38
2018-04-22T06:16:41.656Z,298.13
2018-04-22T06:17:42.465Z,281.25
2018-04-22T06:18:41.152Z,258.75
2018-04-22T06:19:42.117Z,258.75
2018-04-22T06:20:43.109Z,270.00
2018-04-22T06:21:43.202Z,303.75
2018-04-22T06:22:41.576Z,315.00
2018-04-22T06:23:42.515Z,315.00
2018-04-22T06:24:43.250Z,309.38
2018-04-22T06:25:41.165Z,315.00
2018-04-22T06:26:41.599Z,326.25
2018-04-22T06:27:43.053Z,337.50
2018-04-22T06:28:42.126Z,360.00
2018-04-22T06:29:41.974Z,360.00
2018-04-22T06:30:41.022Z,360.00
2018-04-22T06:31:41.432Z,371.25
2018-04-22T06:32:41.117Z,376.88
2018-04-22T06:33:42.375Z,376.88
2018-04-22T06:34:41.956Z,382.50
2018-04-22T06:35:41.260Z,371.25
2018-04-22T06:36:44.023Z,405.00
2018-04-22T06:37:41.749Z,427.50
2018-04-22T06:38:41.373Z,444.38
2018-04-22T06:39:42.915Z,461.25
2018-04-22T06:40:43.340Z,495.00
2018-04-22T06:41:43.375Z,511.88
2018-04-22T06:42:41.875Z,511.88
2018-04-22T06:43:41.876Z,545.63
2018-04-22T06:44:42.222Z,568.13
2018-04-22T06:45:41.618Z,562.50
2018-04-22T06:46:42.450Z,551.25
2018-04-22T06:47:42.135Z,517.50
2018-04-22T06:48:42.696Z,472.50
2018-04-22T06:49:43.378Z,461.25
2018-04-22T06:50:42.822Z,450.00
2018-04-22T06:51:44.384Z,444.38
2018-04-22T06:52:42.440Z,427.50
2018-04-22T06:53:43.148Z,410.63
2018-04-22T06:54:43.204Z,405.00
2018-04-22T06:55:43.373Z,382.50
2018-04-22T06:56:42.100Z,241.88
2018-04-22T06:57:43.374Z,241.88
2018-04-22T06:58:42.500Z,247.50
2018-04-22T06:59:42.418Z,241.88
2018-04-22T07:00:42.449Z,230.63
2018-04-22T07:01:42.647Z,219.38
2018-04-22T07:02:42.425Z,208.13
2018-04-22T07:03:42.574Z,202.50
2018-04-22T07:04:41.886Z,213.75
2018-04-22T07:05:42.149Z,253.13
2018-04-22T07:06:41.886Z,320.63
2018-04-22T07:07:43.499Z,421.88
2018-04-22T07:08:42.378Z,556.88
2018-04-22T07:09:41.668Z,568.13
2018-04-22T07:10:41.454Z,579.38
2018-04-22T07:11:43.251Z,585.00
2018-04-22T07:12:41.685Z,590.63
2018-04-22T07:13:41.686Z,596.25
2018-04-22T07:14:42.202Z,596.25
2018-04-22T07:15:42.968Z,585.00
2018-04-22T07:16:42.588Z,562.50
2018-04-22T07:17:43.410Z,551.25
2018-04-22T07:18:41.893Z,540.00
2018-04-22T07:19:41.893Z,551.25
2018-04-22T07:20:42.046Z,562.50
2018-04-22T07:21:41.484Z,573.75
2018-04-22T07:22:41.896Z,590.63
2018-04-22T07:23:41.962Z,573.75
2018-04-22T07:24:41.895Z,579.38
2018-04-22T07:25:42.668Z,601.88
2018-04-22T07:26:41.771Z,607.50
2018-04-22T07:27:45.452Z,630.00
2018-04-22T07:28:44.628Z,635.63
2018-04-22T07:29:42.669Z,652.50
2018-04-22T07:30:50.119Z,652.50
2018-04-22T07:31:42.514Z,658.13
2018-04-22T07:32:41.923Z,658.13
2018-04-22T07:33:41.797Z,663.75
2018-04-22T07:34:42.185Z,646.88
2018-04-22T07:35:43.092Z,641.25
2018-04-22T07:36:42.376Z,641.25
2018-04-22T07:37:42.247Z,624.38
2018-04-22T07:38:41.814Z,596.25
2018-04-22T07:39:44.292Z,630.00
2018-04-22T07:40:41.706Z,658.13
2018-04-22T07:41:41.593Z,680.63
2018-04-22T07:42:41.909Z,686.25
2018-04-22T07:43:44.244Z,675.00
2018-04-22T07:44:42.310Z,675.00
2018-04-22T07:45:42.003Z,641.25
2018-04-22T07:46:41.689Z,630.00
2018-04-22T07:47:44.021Z,686.25
2018-04-22T07:48:41.987Z,691.88
2018-04-22T07:49:41.880Z,663.75
2018-04-22T07:50:43.487Z,675.00
2018-04-22T07:51:41.914Z,697.50
2018-04-22T07:52:43.919Z,680.63
2018-04-22T07:53:42.564Z,703.13
2018-04-22T07:54:42.417Z,708.75
2018-04-22T07:55:41.668Z,708.75
2018-04-22T07:56:41.786Z,720.00
2018-04-22T07:57:42.785Z,731.25
2018-04-22T07:58:42.802Z,736.88
2018-04-22T07:59:42.793Z,753.75
2018-04-22T08:00:42.310Z,753.75
2018-04-22T08:01:42.736Z,714.38
2018-04-22T08:02:42.048Z,703.13
2018-04-22T08:03:42.243Z,759.38
2018-04-22T08:04:42.420Z,748.13
2018-04-22T08:05:42.997Z,793.13
2018-04-22T08:06:42.481Z,781.88
2018-04-22T08:07:42.422Z,765.00
2018-04-22T08:08:44.093Z,787.50
2018-04-22T08:09:43.013Z,776.25
2018-04-22T08:10:42.053Z,781.88
2018-04-22T08:11:41.949Z,838.13
2018-04-22T08:12:41.908Z,838.13
2018-04-22T08:13:42.378Z,843.75
2018-04-22T08:14:42.110Z,849.38
2018-04-22T08:15:42.463Z,815.63
2018-04-22T08:16:42.144Z,821.25
2018-04-22T08:17:43.934Z,860.63
2018-04-22T08:18:44.132Z,849.38
2018-04-22T08:19:42.951Z,849.38
2018-04-22T08:20:42.230Z,871.88
2018-04-22T08:21:42.297Z,894.38
2018-04-22T08:22:42.333Z,916.88
2018-04-22T08:23:44.636Z,900.00
2018-04-22T08:24:45.102Z,877.50
2018-04-22T08:25:42.204Z,933.75
2018-04-22T08:26:42.702Z,922.50
2018-04-22T08:27:44.891Z,877.50
2018-04-22T08:28:43.621Z,945.00
2018-04-22T08:29:42.483Z,956.25
2018-04-22T08:30:42.885Z,950.63
2018-04-22T08:31:42.836Z,956.25
2018-04-22T08:32:44.440Z,894.38
2018-04-22T08:33:42.884Z,961.88
2018-04-22T08:34:44.357Z,978.75
2018-04-22T08:35:43.063Z,1001.25
2018-04-22T08:36:43.636Z,1006.88
2018-04-22T08:37:43.407Z,1023.75
2018-04-22T08:38:44.106Z,1029.38
2018-04-22T08:39:46.011Z,1029.38
2018-04-22T08:40:43.149Z,1046.25
2018-04-22T08:41:42.868Z,1046.25
2018-04-22T08:42:42.962Z,1091.25
2018-04-22T08:43:42.663Z,1096.88
2018-04-22T08:44:45.071Z,1080.00
2018-04-22T08:45:42.499Z,1108.13
2018-04-22T08:46:43.411Z,1158.75
2018-04-22T08:47:43.510Z,1175.63
2018-04-22T08:48:43.492Z,1181.25
2018-04-22T08:50:04.953Z,1215.00
2018-04-22T08:50:42.565Z,1260.00
2018-04-22T08:51:44.620Z,1310.63
2018-04-22T08:52:42.758Z,1327.50
2018-04-22T08:53:42.793Z,1411.88
2018-04-22T08:54:42.953Z,1423.13
2018-04-22T08:55:44.953Z,1490.63
2018-04-22T08:56:43.033Z,1603.13
2018-04-22T08:57:43.329Z,1738.13
2018-04-22T08:58:43.234Z,1873.13
2018-04-22T08:59:42.998Z,2064.38
2018-04-22T09:00:42.676Z,2379.38
2018-04-22T09:01:43.530Z,2694.38
2018-04-22T09:02:42.749Z,3071.25
2018-04-22T09:03:47.119Z,3504.38
2018-04-22T09:04:42.776Z,3785.63
2018-04-22T09:05:42.979Z,4010.63
2018-04-22T09:06:43.521Z,4168.13
2018-04-22T09:07:44.309Z,4618.13
2018-04-22T09:08:42.691Z,4719.38
2018-04-22T09:09:43.138Z,4466.25
2018-04-22T09:10:43.798Z,4353.75
2018-04-22T09:11:43.473Z,4218.75
2018-04-22T09:12:42.966Z,3521.25
2018-04-22T09:13:42.743Z,3560.63
2018-04-22T09:14:43.063Z,3583.13
2018-04-22T09:15:42.827Z,3414.38
2018-04-22T09:16:43.031Z,3251.25
2018-04-22T09:17:43.020Z,3172.50
2018-04-22T09:18:43.468Z,3133.13
2018-04-22T09:19:43.738Z,3093.75
2018-04-22T09:20:43.083Z,3020.63
2018-04-22T09:21:43.500Z,2896.88
2018-04-22T09:22:43.584Z,2846.25
2018-04-22T09:23:43.479Z,2908.13
2018-04-22T09:24:43.743Z,2784.38
2018-04-22T09:25:44.821Z,2700.00
2018-04-22T09:26:43.746Z,2795.63
2018-04-22T09:27:44.369Z,2790.00
2018-04-22T09:28:44.549Z,2773.13
2018-04-22T09:29:43.292Z,2700.00
2018-04-22T09:30:44.218Z,2604.38
2018-04-22T09:31:46.105Z,2401.88
2018-04-22T09:32:43.441Z,2182.50
2018-04-22T09:33:43.238Z,2266.88
2018-04-22T09:34:44.980Z,2413.13
2018-04-22T09:35:46.763Z,2317.50
2018-04-22T09:36:46.173Z,2300.63
2018-04-22T09:37:46.194Z,2401.88
2018-04-22T09:38:44.966Z,2424.38
2018-04-22T09:39:46.842Z,2385.00
2018-04-22T09:40:44.596Z,2373.75
2018-04-22T09:41:47.328Z,2418.75
2018-04-22T09:42:43.984Z,2469.38
2018-04-22T09:43:44.472Z,2531.25
2018-04-22T09:44:43.944Z,2536.88
2018-04-22T09:45:44.382Z,2598.75
2018-04-22T09:46:45.567Z,2570.63
2018-04-22T09:47:43.781Z,2570.63
2018-04-22T09:48:43.477Z,2565.00
2018-04-22T09:49:44.299Z,2593.13
2018-04-22T09:50:44.303Z,2688.75
2018-04-22T09:51:43.993Z,2700.00
2018-04-22T09:52:43.752Z,2683.13
2018-04-22T09:53:48.421Z,2666.25
2018-04-22T09:54:43.728Z,2700.00
2018-04-22T09:55:45.276Z,2739.38
2018-04-22T09:56:44.241Z,2806.88
2018-04-22T09:57:44.948Z,2846.25
2018-04-22T09:58:44.264Z,2896.88
2018-04-22T09:59:47.051Z,2986.88
2018-04-22T10:00:44.583Z,2986.88
2018-04-22T10:01:44.303Z,3031.88
2018-04-22T10:02:45.214Z,3043.13
2018-04-22T10:03:46.365Z,3031.88
2018-04-22T10:04:44.525Z,3127.50
2018-04-22T10:05:44.344Z,3217.50
2018-04-22T10:06:49.521Z,3386.25
2018-04-22T10:07:43.943Z,3346.88
2018-04-22T10:08:44.832Z,3245.63
2018-04-22T10:09:44.216Z,3251.25
2018-04-22T10:10:45.452Z,3408.75
2018-04-22T10:11:47.480Z,3493.13
2018-04-22T10:12:46.072Z,3526.88
2018-04-22T10:13:47.549Z,3532.50
2018-04-22T10:14:48.592Z,3526.88
2018-04-22T10:15:44.715Z,3510.00
2018-04-22T10:16:44.985Z,3498.75
2018-04-22T10:17:44.209Z,3515.63
2018-04-22T10:18:45.715Z,3515.63
2018-04-22T10:19:44.433Z,3487.50
2018-04-22T10:20:45.137Z,3414.38
2018-04-22T10:21:45.011Z,3369.38
2018-04-22T10:22:45.566Z,3369.38
2018-04-22T10:23:44.476Z,3369.38
2018-04-22T10:24:45.018Z,3296.25
2018-04-22T10:25:46.885Z,3335.63
2018-04-22T10:26:46.162Z,3313.13
2018-04-22T10:27:44.921Z,3138.75
2018-04-22T10:28:45.474Z,3335.63
2018-04-22T10:29:47.413Z,3318.75
2018-04-22T10:30:47.984Z,3285.00
2018-04-22T10:31:45.273Z,3262.50
2018-04-22T10:32:46.303Z,3262.50
2018-04-22T10:33:44.479Z,3093.75
2018-04-22T10:34:45.917Z,2891.25
2018-04-22T10:35:45.251Z,2773.13
2018-04-22T10:36:46.986Z,2480.63
2018-04-22T10:37:46.672Z,2221.88
2018-04-22T10:38:46.947Z,2064.38
2018-04-22T10:39:46.278Z,2075.63
2018-04-22T10:40:48.021Z,2081.25
2018-04-22T10:41:46.115Z,2047.50
2018-04-22T10:42:45.140Z,2008.13
2018-04-22T10:43:45.527Z,1963.13
2018-04-22T10:44:46.185Z,1923.75
2018-04-22T10:45:46.351Z,1929.38
2018-04-22T10:46:48.562Z,1901.25
2018-04-22T10:47:46.104Z,1912.50
2018-04-22T10:48:46.518Z,1923.75
2018-04-22T10:50:48.577Z,2700.00
2018-04-22T10:51:46.035Z,3667.50
2018-04-22T10:52:45.661Z,3864.38
2018-04-22T10:53:46.207Z,3706.88
2018-04-22T10:54:46.077Z,3515.63
2018-04-22T10:55:47.195Z,3673.13
2018-04-22T10:56:46.354Z,3976.88
2018-04-22T10:57:45.347Z,3768.75
2018-04-22T10:58:46.743Z,3785.63
2018-04-22T10:59:46.428Z,3751.88
2018-04-22T11:00:47.819Z,3701.25
2018-04-22T11:01:46.111Z,2806.88
2018-04-22T11:02:48.645Z,1158.75
2018-04-22T11:03:45.195Z,450.00
2018-04-22T11:04:46.096Z,405.00
2018-04-22T11:05:45.499Z,399.38
2018-04-22T11:06:45.535Z,388.13
2018-04-22T11:07:45.443Z,393.75
2018-04-22T11:08:45.759Z,405.00
2018-04-22T11:09:46.236Z,421.88
2018-04-22T11:10:46.037Z,416.25
2018-04-22T11:11:47.250Z,410.63
2018-04-22T11:12:46.150Z,405.00
2018-04-22T11:13:46.501Z,399.38
2018-04-22T11:14:45.642Z,393.75
2018-04-22T11:15:46.161Z,388.13
2018-04-22T11:16:45.716Z,388.13
2018-04-22T11:17:45.393Z,388.13
2018-04-22T11:18:45.867Z,382.50
2018-04-22T11:19:48.465Z,393.75
2018-04-22T11:20:51.383Z,393.75
2018-04-22T11:21:45.597Z,382.50
2018-04-22T11:22:45.716Z,388.13
2018-04-22T11:23:46.313Z,399.38
2018-04-22T11:24:46.271Z,410.63
2018-04-22T11:25:45.825Z,405.00
2018-04-22T11:26:45.983Z,399.38
2018-04-22T11:27:47.163Z,393.75
2018-04-22T11:28:45.745Z,399.38
2018-04-22T11:29:46.047Z,421.88
2018-04-22T11:30:45.959Z,433.13
2018-04-22T11:31:45.738Z,427.50
2018-04-22T11:32:45.705Z,427.50
2018-04-22T11:33:45.741Z,438.75
2018-04-22T11:34:45.789Z,433.13
2018-04-22T11:35:46.088Z,438.75
2018-04-22T11:36:46.229Z,444.38
2018-04-22T11:37:46.456Z,444.38
2018-04-22T11:38:47.891Z,444.38
2018-04-22T11:39:46.228Z,450.00
2018-04-22T11:40:46.021Z,450.00
2018-04-22T11:41:46.449Z,455.63
2018-04-22T11:42:49.812Z,466.88
2018-04-22T11:43:46.141Z,466.88
2018-04-22T11:44:47.173Z,472.50
2018-04-22T11:45:46.035Z,466.88
2018-04-22T11:46:46.245Z,450.00
2018-04-22T11:47:46.172Z,416.25
2018-04-22T11:48:48.060Z,399.38
2018-04-22T11:49:46.385Z,382.50
2018-04-22T11:50:46.560Z,371.25
2018-04-22T11:51:47.322Z,376.88
2018-04-22T11:52:46.563Z,382.50
2018-04-22T11:53:46.190Z,388.13
2018-04-22T11:54:46.565Z,382.50
2018-04-22T11:55:46.566Z,360.00
2018-04-22T11:56:46.794Z,354.38
2018-04-22T11:57:46.562Z,331.88
2018-04-22T11:58:46.061Z,303.75
2018-04-22T11:59:46.049Z,298.13
2018-04-22T12:00:46.451Z,298.13
2018-04-22T12:01:48.059Z,298.13
2018-04-22T12:02:46.902Z,298.13
2018-04-22T12:03:47.122Z,292.50
2018-04-22T12:04:48.235Z,303.75
2018-04-22T12:05:46.697Z,320.63
2018-04-22T12:06:49.443Z,320.63
2018-04-22T12:07:46.575Z,320.63
2018-04-22T12:08:46.334Z,326.25
2018-04-22T12:09:47.225Z,331.88
2018-04-22T12:10:48.673Z,331.88
2018-04-22T12:11:48.258Z,326.25
2018-04-22T12:12:50.835Z,326.25
2018-04-22T12:13:46.334Z,315.00
2018-04-22T12:14:47.309Z,309.38
2018-04-22T12:15:46.955Z,309.38
2018-04-22T12:16:46.755Z,331.88
2018-04-22T12:17:46.911Z,337.50
2018-04-22T12:18:46.936Z,337.50
2018-04-22T12:19:48.255Z,331.88
2018-04-22T12:20:46.478Z,315.00
2018-04-22T12:21:47.195Z,292.50
2018-04-22T12:22:46.494Z,298.13
2018-04-22T12:23:46.581Z,292.50
2018-04-22T12:24:48.902Z,286.88
2018-04-22T12:25:47.282Z,281.25
2018-04-22T12:26:46.463Z,264.38
2018-04-22T12:27:47.472Z,258.75
2018-04-22T12:28:47.238Z,247.50
2018-04-22T12:29:46.547Z,247.50
2018-04-22T12:30:46.774Z,275.63
2018-04-22T12:31:47.739Z,270.00
2018-04-22T12:32:47.096Z,270.00
2018-04-22T12:33:47.334Z,281.25
2018-04-22T12:34:47.489Z,281.25
2018-04-22T12:35:47.903Z,270.00
2018-04-22T12:36:47.095Z,270.00
2018-04-22T12:37:47.137Z,253.13
2018-04-22T12:38:47.093Z,225.00
2018-04-22T12:39:46.559Z,225.00
2018-04-22T12:40:47.930Z,219.38
2018-04-22T12:41:46.794Z,208.13
2018-04-22T12:42:49.990Z,196.88
2018-04-22T12:43:46.865Z,191.25
2018-04-22T12:44:48.314Z,191.25